createdAt,value
2022-10-21T00:04:06.407Z,7.66
2022-10-21T00:06:33.367Z,7.61
2022-10-21T00:09:00.628Z,7.56
2022-10-21T00:11:28.762Z,7.70
2022-10-21T00:13:55.959Z,7.70
2022-10-21T00:16:24.284Z,7.56
2022-10-21T00:18:51.000Z,7.60
2022-10-21T00:21:21.483Z,7.42
2022-10-21T00:23:49.131Z,7.52
2022-10-21T00:26:18.909Z,7.40
2022-10-21T00:28:46.155Z,7.28
2022-10-21T00:31:15.406Z,7.24
2022-10-21T00:33:43.762Z,7.44
2022-10-21T00:36:12.659Z,7.47
2022-10-21T00:38:39.537Z,7.50
2022-10-21T00:41:07.376Z,7.49
2022-10-21T00:43:53.624Z,7.53
2022-10-21T00:46:29.628Z,7.28
2022-10-21T00:49:00.019Z,7.23
2022-10-21T00:51:28.299Z,7.35
2022-10-21T00:53:55.240Z,7.47
2022-10-21T00:56:27.846Z,7.52
2022-10-21T00:58:58.025Z,7.52
2022-10-21T01:01:26.186Z,7.54
2022-10-21T01:03:54.168Z,7.53
2022-10-21T01:06:25.629Z,7.42
2022-10-21T01:08:59.675Z,7.27
2022-10-21T01:11:30.129Z,7.36
2022-10-21T01:14:48.711Z,7.34
2022-10-21T01:17:44.638Z,7.37
2022-10-21T01:20:30.290Z,7.43
2022-10-21T01:23:28.282Z,7.28
2022-10-21T01:26:43.905Z,7.43
2022-10-21T01:29:37.214Z,7.17
2022-10-21T01:32:13.312Z,7.04
2022-10-21T01:34:45.804Z,7.18
2022-10-21T01:37:18.218Z,7.15
2022-10-21T01:39:52.558Z,7.27
2022-10-21T01:42:28.168Z,7.22
2022-10-21T01:45:01.396Z,7.44
2022-10-21T01:47:32.987Z,7.57
2022-10-21T01:50:05.640Z,7.56
2022-10-21T01:52:32.840Z,7.54
2022-10-21T01:55:04.562Z,7.52
2022-10-21T01:57:37.710Z,7.43
2022-10-21T02:00:06.002Z,7.40
2022-10-21T02:02:38.059Z,7.38
2022-10-21T02:05:10.866Z,7.51
2022-10-21T02:07:37.744Z,7.63
2022-10-21T02:10:05.730Z,7.60
2022-10-21T02:12:36.297Z,7.64
2022-10-21T02:15:07.197Z,7.58
2022-10-21T02:17:38.221Z,7.51
2022-10-21T02:20:10.196Z,7.38
2022-10-21T02:22:40.416Z,7.35
2022-10-21T02:25:14.149Z,7.41
2022-10-21T02:27:41.098Z,7.54
2022-10-21T02:30:09.341Z,7.66
2022-10-21T02:32:56.159Z,7.63
2022-10-21T02:35:38.197Z,7.54
2022-10-21T02:38:12.163Z,7.46
2022-10-21T02:40:46.092Z,7.71
2022-10-21T02:43:18.930Z,7.64
2022-10-21T02:45:47.493Z,7.64
2022-10-21T02:48:17.119Z,7.56
2022-10-21T02:50:43.877Z,7.63
2022-10-21T02:53:12.108Z,7.82
2022-10-21T02:55:38.960Z,7.84
2022-10-21T02:58:05.898Z,7.81
2022-10-21T03:00:33.080Z,7.88
2022-10-21T03:03:00.931Z,7.89
2022-10-21T03:05:29.177Z,7.96
2022-10-21T03:07:57.127Z,7.92
2022-10-21T03:10:26.252Z,7.76
2022-10-21T03:12:54.308Z,7.70
2022-10-21T03:15:21.115Z,7.65
2022-10-21T03:17:50.006Z,7.84
2022-10-21T03:20:17.319Z,7.87
2022-10-21T03:22:45.805Z,7.88
2022-10-21T03:25:13.334Z,7.90
2022-10-21T03:27:41.324Z,7.91
2022-10-21T03:30:09.684Z,8.01
2022-10-21T03:32:37.248Z,7.97
2022-10-21T03:35:05.691Z,7.80
2022-10-21T03:37:33.626Z,7.83
2022-10-21T03:40:02.697Z,7.97
2022-10-21T03:42:29.567Z,7.92
2022-10-21T03:44:58.791Z,7.93
2022-10-21T03:47:25.696Z,7.98
2022-10-21T03:49:52.680Z,7.86
2022-10-21T03:52:20.480Z,7.83
2022-10-21T03:54:47.484Z,7.87
2022-10-21T03:57:15.884Z,7.91
2022-10-21T03:59:43.745Z,7.91
2022-10-21T04:02:10.649Z,7.99
2022-10-21T04:04:37.897Z,8.06
2022-10-21T04:07:04.970Z,8.17
2022-10-21T04:09:32.187Z,8.11
2022-10-21T04:11:58.963Z,7.97
2022-10-21T04:14:27.424Z,7.95
2022-10-21T04:17:02.603Z,7.97
2022-10-21T04:19:33.923Z,7.86
2022-10-21T04:22:00.675Z,7.79
2022-10-21T04:24:27.765Z,7.76
2022-10-21T04:26:58.033Z,7.92
2022-10-21T04:29:24.854Z,8.02
2022-10-21T04:31:58.492Z,8.10
2022-10-21T04:34:25.436Z,8.10
2022-10-21T04:36:52.419Z,8.06
2022-10-21T04:39:20.332Z,7.93
2022-10-21T04:41:47.146Z,7.94
2022-10-21T04:44:13.971Z,7.77
2022-10-21T04:46:41.002Z,7.77
2022-10-21T04:49:09.279Z,8.00
2022-10-21T04:51:36.762Z,8.09
2022-10-21T04:54:03.857Z,8.19
2022-10-21T04:56:30.981Z,8.02
2022-10-21T04:58:57.739Z,8.03
2022-10-21T05:01:28.150Z,8.04
2022-10-21T05:03:55.001Z,7.82
2022-10-21T05:06:24.759Z,7.82
2022-10-21T05:08:52.242Z,7.79
2022-10-21T05:11:19.649Z,7.90
2022-10-21T05:13:47.580Z,7.93
2022-10-21T05:16:15.999Z,7.81
2022-10-21T05:18:44.081Z,7.75
2022-10-21T05:21:10.948Z,7.74
2022-10-21T05:23:39.311Z,7.86
2022-10-21T05:26:06.232Z,7.88
2022-10-21T05:28:34.568Z,7.73
2022-10-21T05:31:05.634Z,7.65
2022-10-21T05:33:32.804Z,7.54
2022-10-21T05:36:03.491Z,7.49
2022-10-21T05:38:31.707Z,7.64
2022-10-21T05:41:00.627Z,7.67
2022-10-21T05:43:28.311Z,7.73
2022-10-21T05:45:55.215Z,7.60
2022-10-21T05:48:22.200Z,7.69
2022-10-21T05:50:53.301Z,7.64
2022-10-21T05:53:20.815Z,7.67
2022-10-21T05:55:56.225Z,7.64
2022-10-21T05:58:29.119Z,7.63
2022-10-21T06:00:57.382Z,7.76
2022-10-21T06:03:28.750Z,7.66
2022-10-21T06:05:56.059Z,7.53
2022-10-21T06:08:25.718Z,7.57
2022-10-21T06:11:04.907Z,7.52
2022-10-21T06:13:36.293Z,7.67
2022-10-21T06:18:37.231Z,7.95
2022-10-21T06:21:06.994Z,7.91
2022-10-21T06:23:35.301Z,7.96
2022-10-21T06:26:06.819Z,8.03
2022-10-21T06:28:37.934Z,8.18
2022-10-21T06:31:07.998Z,8.18
2022-10-21T06:33:35.312Z,8.18
2022-10-21T06:36:05.012Z,8.24
2022-10-21T06:38:33.011Z,8.30
2022-10-21T06:41:09.097Z,8.29
2022-10-21T06:43:43.014Z,8.40
2022-10-21T06:46:17.128Z,8.47
2022-10-21T06:48:44.833Z,8.48
2022-10-21T06:51:13.929Z,8.49
2022-10-21T06:53:41.967Z,8.54
2022-10-21T06:56:11.032Z,8.70
2022-10-21T06:58:41.587Z,8.72
2022-10-21T07:01:16.701Z,8.88
2022-10-21T07:03:55.226Z,9.02
2022-10-21T07:06:24.151Z,9.18
2022-10-21T07:08:57.941Z,9.28
2022-10-21T07:11:27.494Z,9.34
2022-10-21T07:13:57.112Z,9.38
2022-10-21T07:16:25.942Z,9.44
2022-10-21T07:18:55.555Z,9.47
2022-10-21T07:21:28.605Z,9.51
2022-10-21T07:23:59.301Z,9.72
2022-10-21T07:26:29.260Z,9.86
2022-10-21T07:29:01.767Z,10.02
2022-10-21T07:31:31.140Z,10.26
2022-10-21T07:33:59.697Z,10.47
2022-10-21T07:36:29.254Z,10.55
2022-10-21T07:39:06.453Z,10.56
2022-10-21T07:41:36.425Z,10.59
2022-10-21T07:44:05.991Z,10.73
2022-10-21T07:46:32.885Z,10.87
2022-10-21T07:49:02.336Z,11.06
2022-10-21T07:51:31.344Z,11.35
2022-10-21T07:54:00.439Z,11.54
2022-10-21T07:56:29.601Z,11.72
2022-10-21T07:58:56.713Z,11.85
2022-10-21T08:01:25.437Z,11.88
2022-10-21T08:03:56.051Z,11.98
2022-10-21T08:06:24.819Z,12.05
2022-10-21T08:08:54.451Z,12.11
2022-10-21T08:11:23.011Z,12.18
2022-10-21T08:13:51.360Z,12.24
2022-10-21T08:16:18.300Z,12.25
2022-10-21T08:18:46.817Z,12.30
2022-10-21T08:21:17.961Z,12.40
2022-10-21T08:23:45.866Z,12.47
2022-10-21T08:26:17.831Z,12.55
2022-10-21T08:28:44.862Z,12.66
2022-10-21T08:31:14.188Z,12.77
2022-10-21T08:33:42.550Z,12.82
2022-10-21T08:36:15.816Z,12.93
2022-10-21T08:38:43.115Z,12.98
2022-10-21T08:41:39.703Z,13.03
2022-10-21T08:44:13.103Z,13.09
2022-10-21T08:46:47.146Z,13.18
2022-10-21T08:49:23.119Z,13.29
2022-10-21T08:51:59.979Z,13.37
2022-10-21T08:54:34.282Z,13.39
2022-10-21T08:57:01.480Z,13.42
2022-10-21T08:59:28.390Z,13.36
2022-10-21T09:02:07.620Z,13.41
2022-10-21T09:04:43.870Z,13.51
2022-10-21T09:07:21.171Z,13.53
2022-10-21T09:09:53.770Z,13.63
2022-10-21T09:12:31.339Z,13.64
2022-10-21T09:15:15.795Z,13.78
2022-10-21T09:17:49.302Z,13.88
2022-10-21T09:20:30.594Z,13.83
2022-10-21T09:23:14.811Z,13.87
2022-10-21T09:25:46.219Z,13.81
2022-10-21T09:28:16.056Z,13.79
2022-10-21T09:30:44.915Z,13.80
2022-10-21T09:33:19.692Z,13.83
2022-10-21T09:35:50.290Z,13.81
2022-10-21T09:38:24.240Z,13.78
2022-10-21T09:40:54.776Z,13.78
2022-10-21T09:43:25.510Z,13.84
2022-10-21T09:45:53.255Z,13.96
2022-10-21T09:48:29.166Z,14.09
2022-10-21T09:51:00.906Z,14.18
2022-10-21T09:53:34.844Z,14.25
2022-10-21T09:56:04.853Z,14.38
2022-10-21T09:58:45.997Z,14.47
2022-10-21T10:01:18.384Z,14.61
2022-10-21T10:03:48.090Z,14.82
2022-10-21T10:06:30.857Z,14.94
2022-10-21T10:09:17.313Z,14.97
2022-10-21T10:11:52.955Z,15.11
2022-10-21T10:14:35.811Z,15.17
2022-10-21T10:17:27.199Z,15.32
2022-10-21T10:20:16.398Z,15.47
2022-10-21T10:22:44.005Z,15.54
2022-10-21T10:25:22.483Z,15.65
2022-10-21T10:27:51.742Z,15.75
2022-10-21T10:30:19.031Z,15.89
2022-10-21T10:32:50.064Z,15.97
2022-10-21T10:35:25.112Z,16.00
2022-10-21T10:37:53.253Z,16.01
2022-10-21T10:40:24.776Z,15.99
2022-10-21T10:43:01.632Z,15.97
2022-10-21T10:45:38.431Z,15.92
2022-10-21T10:48:05.624Z,15.75
2022-10-21T10:50:46.475Z,15.74
2022-10-21T10:53:21.940Z,15.54
2022-10-21T10:56:15.849Z,15.50
2022-10-21T10:58:48.450Z,15.48
2022-10-21T11:01:25.551Z,15.32
2022-10-21T11:03:57.710Z,15.25
2022-10-21T11:06:34.764Z,15.16
2022-10-21T11:09:06.062Z,15.16
2022-10-21T11:11:39.188Z,15.11
2022-10-21T11:14:15.397Z,15.10
2022-10-21T11:17:00.663Z,15.09
2022-10-21T11:19:35.512Z,15.07
2022-10-21T11:22:12.884Z,15.10
2022-10-21T11:24:54.276Z,15.01
2022-10-21T11:27:43.182Z,14.96
2022-10-21T11:30:14.015Z,15.06
2022-10-21T11:32:54.406Z,14.97
2022-10-21T11:35:33.797Z,15.02
2022-10-21T11:38:18.685Z,15.05
2022-10-21T11:40:49.207Z,14.99
2022-10-21T11:43:31.331Z,15.06
2022-10-21T11:46:04.362Z,15.16
2022-10-21T11:48:44.096Z,15.17
2022-10-21T11:51:20.522Z,15.11
2022-10-21T11:54:09.804Z,15.03
2022-10-21T11:56:43.049Z,15.10
2022-10-21T11:59:26.532Z,15.06
2022-10-21T12:02:00.825Z,15.02
2022-10-21T12:04:34.436Z,14.98
2022-10-21T12:07:17.441Z,14.99
2022-10-21T12:09:53.146Z,15.03
2022-10-21T12:12:27.035Z,15.06
2022-10-21T12:14:58.482Z,15.10
2022-10-21T12:17:26.368Z,15.10
2022-10-21T12:19:57.494Z,15.16
2022-10-21T12:22:28.379Z,15.19
2022-10-21T12:25:07.600Z,15.17
2022-10-21T12:27:43.375Z,15.26
2022-10-21T12:30:23.441Z,15.32
2022-10-21T12:33:14.382Z,15.29
2022-10-21T12:35:46.525Z,15.29
2022-10-21T12:38:44.779Z,15.16
2022-10-21T12:41:28.608Z,15.20
2022-10-21T12:44:20.527Z,15.13
2022-10-21T12:46:51.469Z,15.11
2022-10-21T12:49:22.203Z,15.08
2022-10-21T12:51:58.967Z,15.12
2022-10-21T12:54:30.519Z,15.20
2022-10-21T12:57:03.318Z,15.22
2022-10-21T12:59:35.262Z,15.21
2022-10-21T13:02:34.725Z,15.17
2022-10-21T13:05:02.776Z,15.20
2022-10-21T13:07:36.581Z,15.31
2022-10-21T13:10:28.215Z,15.35
2022-10-21T13:13:42.196Z,15.51
2022-10-21T13:16:34.318Z,15.55
2022-10-21T13:19:06.096Z,15.60
2022-10-21T13:21:41.269Z,15.77
2022-10-21T13:24:24.071Z,15.82
2022-10-21T13:26:53.869Z,15.81
2022-10-21T13:29:44.508Z,15.91
2022-10-21T13:32:25.011Z,15.93
2022-10-21T13:35:30.761Z,16.01
2022-10-21T13:38:02.251Z,16.02
2022-10-21T13:40:38.761Z,15.97
2022-10-21T13:43:13.833Z,15.97
2022-10-21T13:45:47.269Z,16.05
2022-10-21T13:48:19.851Z,16.10
2022-10-21T13:50:49.801Z,16.15
2022-10-21T13:53:27.469Z,16.21
2022-10-21T13:55:57.356Z,16.27
2022-10-21T13:58:25.831Z,16.33
2022-10-21T14:00:57.822Z,16.33
2022-10-21T14:03:27.192Z,16.34
2022-10-21T14:06:00.091Z,16.34
2022-10-21T14:08:30.036Z,16.29
2022-10-21T14:10:59.463Z,16.25
2022-10-21T14:13:31.256Z,16.22
2022-10-21T14:16:01.579Z,16.14
2022-10-21T14:18:34.967Z,16.12
2022-10-21T14:21:13.049Z,15.74
2022-10-21T14:23:39.994Z,15.68
2022-10-21T14:26:09.190Z,15.56
2022-10-21T14:28:39.266Z,15.36
2022-10-21T14:31:09.468Z,15.32
2022-10-21T14:33:38.038Z,15.27
2022-10-21T14:36:13.106Z,15.21
2022-10-21T14:38:44.546Z,15.11
2022-10-21T14:41:18.431Z,15.14
2022-10-21T14:43:50.386Z,15.06
2022-10-21T14:46:18.031Z,14.91
2022-10-21T14:48:47.965Z,14.76
2022-10-21T14:51:21.313Z,14.72
2022-10-21T14:53:56.251Z,14.61
2022-10-21T14:56:30.066Z,14.67
2022-10-21T14:58:58.914Z,14.53
2022-10-21T15:01:28.911Z,14.38
2022-10-21T15:03:57.653Z,14.02
2022-10-21T15:06:30.083Z,14.03
2022-10-21T15:09:16.806Z,13.99
2022-10-21T15:11:45.305Z,13.89
2022-10-21T15:14:30.090Z,13.85
2022-10-21T15:16:57.945Z,13.69
2022-10-21T15:19:27.352Z,13.77
2022-10-21T15:22:00.068Z,13.61
2022-10-21T15:24:36.748Z,13.58
2022-10-21T15:27:04.313Z,13.51
2022-10-21T15:29:37.566Z,13.22
2022-10-21T15:32:07.308Z,13.32
2022-10-21T15:34:34.117Z,13.16
2022-10-21T15:37:03.514Z,13.25
2022-10-21T15:39:33.465Z,13.09
2022-10-21T15:42:02.223Z,13.01
2022-10-21T15:44:30.622Z,12.78
2022-10-21T15:46:59.249Z,12.70
2022-10-21T15:49:28.285Z,12.68
2022-10-21T15:51:55.174Z,12.58
2022-10-21T15:54:26.208Z,12.50
2022-10-21T15:56:55.184Z,12.29
2022-10-21T15:59:27.538Z,12.32
2022-10-21T16:01:55.947Z,12.29
2022-10-21T16:04:27.251Z,12.25
2022-10-21T16:06:54.925Z,12.15
2022-10-21T16:09:26.019Z,11.92
2022-10-21T16:12:00.767Z,11.89
2022-10-21T16:14:30.229Z,11.86
2022-10-21T16:16:58.779Z,11.74
2022-10-21T16:19:27.327Z,11.69
2022-10-21T16:21:54.684Z,11.67
2022-10-21T16:24:26.621Z,11.68
2022-10-21T16:26:55.806Z,11.61
2022-10-21T16:29:25.195Z,11.53
2022-10-21T16:31:53.425Z,11.65
2022-10-21T16:34:20.972Z,11.58
2022-10-21T16:36:51.979Z,11.53
2022-10-21T16:39:20.157Z,11.61
2022-10-21T16:41:48.983Z,11.54
2022-10-21T16:44:16.031Z,11.53
2022-10-21T16:46:50.076Z,11.63
2022-10-21T16:49:22.628Z,11.53
2022-10-21T16:51:52.223Z,11.51
2022-10-21T16:54:23.103Z,11.47
2022-10-21T16:56:55.038Z,11.45
2022-10-21T16:59:23.210Z,11.32
2022-10-21T17:01:53.998Z,11.28
2022-10-21T17:04:20.968Z,11.20
2022-10-21T17:06:49.285Z,11.11
2022-10-21T17:09:16.274Z,11.25
2022-10-21T17:11:44.018Z,11.16
2022-10-21T17:14:16.603Z,11.14
2022-10-21T17:16:44.762Z,11.21
2022-10-21T17:19:12.053Z,11.26
2022-10-21T17:21:41.055Z,11.36
2022-10-21T17:24:10.587Z,11.18
2022-10-21T17:26:39.535Z,11.33
2022-10-21T17:29:07.091Z,11.25
2022-10-21T17:31:35.833Z,11.06
2022-10-21T17:34:03.028Z,11.03
2022-10-21T17:36:30.498Z,10.96
2022-10-21T17:38:57.932Z,10.84
2022-10-21T17:41:24.695Z,10.98
2022-10-21T17:43:53.639Z,11.04
2022-10-21T17:46:24.243Z,10.97
2022-10-21T17:48:56.683Z,11.00
2022-10-21T17:51:25.278Z,10.99
2022-10-21T17:53:57.189Z,11.00
2022-10-21T17:56:24.208Z,10.93
2022-10-21T17:59:02.726Z,11.06
2022-10-21T18:01:29.748Z,10.96
2022-10-21T18:03:59.795Z,10.83
2022-10-21T18:06:26.957Z,10.80
2022-10-21T18:09:04.994Z,10.71
2022-10-21T18:11:32.266Z,10.71
2022-10-21T18:14:04.195Z,10.73
2022-10-21T18:16:32.701Z,10.76
2022-10-21T18:31:13.607Z,11.17
2022-10-21T18:33:58.152Z,11.35
2022-10-21T18:36:26.312Z,11.40
2022-10-21T18:38:53.351Z,11.56
2022-10-21T18:41:21.477Z,11.69
2022-10-21T18:43:54.625Z,11.76
2022-10-21T18:46:23.532Z,11.78
2022-10-21T18:49:01.135Z,11.81
2022-10-21T19:15:00.027Z,12.08
2022-10-21T19:17:27.110Z,12.01
2022-10-21T19:19:55.167Z,12.07
2022-10-21T19:22:22.159Z,11.98
2022-10-21T19:24:49.084Z,11.97
2022-10-21T19:27:16.179Z,12.05
2022-10-21T19:29:43.280Z,12.13
2022-10-21T19:32:12.248Z,12.06
2022-10-21T19:34:39.071Z,12.24
2022-10-21T19:37:06.122Z,12.23
2022-10-21T19:39:33.532Z,12.22
2022-10-21T19:42:00.398Z,12.24
2022-10-21T19:44:29.926Z,12.12
2022-10-21T19:46:56.763Z,12.16
2022-10-21T19:49:25.154Z,12.11
2022-10-21T19:51:51.904Z,12.09
2022-10-21T19:54:18.838Z,11.96
2022-10-21T19:56:45.795Z,12.10
2022-10-21T19:59:13.208Z,12.17
2022-10-21T20:01:40.294Z,12.17
2022-10-21T20:04:09.902Z,12.08
2022-10-21T20:06:38.397Z,11.99
2022-10-21T20:09:09.401Z,12.20
2022-10-21T20:11:37.478Z,11.95
2022-10-21T20:14:04.654Z,12.09
2022-10-21T20:16:35.609Z,12.06
2022-10-21T20:19:04.770Z,12.14
2022-10-21T20:21:33.042Z,12.04
2022-10-21T20:24:01.583Z,12.01
2022-10-21T20:26:29.145Z,12.05
2022-10-21T20:28:56.196Z,12.09
2022-10-21T20:31:26.124Z,12.13
2022-10-21T20:33:53.071Z,12.21
2022-10-21T20:36:23.560Z,12.20
2022-10-21T20:38:52.383Z,12.18
2022-10-21T20:41:23.524Z,12.08
2022-10-21T20:43:51.447Z,12.00
2022-10-21T20:46:19.890Z,12.08
2022-10-21T20:48:49.180Z,12.14
2022-10-21T20:51:20.060Z,12.04
2022-10-21T20:56:22.482Z,12.20
2022-10-21T20:58:50.340Z,12.13
2022-10-21T21:01:19.979Z,12.09
2022-10-21T21:03:49.863Z,12.19
2022-10-21T21:06:18.153Z,12.12
2022-10-21T21:08:53.430Z,12.06
2022-10-21T21:11:33.943Z,12.00
2022-10-21T21:14:01.030Z,12.10
2022-10-21T21:16:28.263Z,12.17
2022-10-21T21:18:57.304Z,12.12
2022-10-21T21:21:27.160Z,12.03
2022-10-21T21:23:54.883Z,12.06
2022-10-21T21:26:23.584Z,12.08
2022-10-21T21:28:52.668Z,11.96
2022-10-21T21:31:21.050Z,11.97
2022-10-21T21:33:47.897Z,11.98
2022-10-21T21:36:17.494Z,11.97
2022-10-21T21:38:45.457Z,12.00
2022-10-21T21:41:12.814Z,12.03
2022-10-21T21:43:41.202Z,11.94
2022-10-21T21:46:09.663Z,12.08
2022-10-21T21:48:37.932Z,12.07
2022-10-21T21:51:07.255Z,11.97
2022-10-21T21:53:36.658Z,12.00
2022-10-21T21:56:05.125Z,11.93
2022-10-21T21:58:32.016Z,11.97
2022-10-21T22:01:09.491Z,11.96
2022-10-21T22:03:36.541Z,12.10
2022-10-21T22:06:03.696Z,12.17
2022-10-21T22:08:30.501Z,12.14
2022-10-21T22:11:02.877Z,12.17
2022-10-21T22:13:29.707Z,12.17
2022-10-21T22:15:59.337Z,12.21
2022-10-21T22:18:27.735Z,12.23
2022-10-21T22:20:58.814Z,12.15
2022-10-21T22:23:27.901Z,12.10
2022-10-21T22:25:55.626Z,12.18
2022-10-21T22:28:22.383Z,12.27
2022-10-21T22:30:57.090Z,12.29
2022-10-21T22:33:24.386Z,12.26
2022-10-21T22:35:53.076Z,12.24
2022-10-21T22:38:20.048Z,12.25
2022-10-21T22:40:47.907Z,12.25
2022-10-21T22:43:15.961Z,12.42
2022-10-21T22:45:47.341Z,12.38
2022-10-21T22:48:21.176Z,12.28
2022-10-21T22:50:48.041Z,12.21
2022-10-21T22:53:16.661Z,12.28
2022-10-21T22:55:43.498Z,12.26
2022-10-21T22:58:16.575Z,12.33
2022-10-21T23:00:43.437Z,12.23
2022-10-21T23:03:10.462Z,12.00
2022-10-21T23:05:37.438Z,12.01
2022-10-21T23:08:04.830Z,12.02
2022-10-21T23:10:34.201Z,12.08
2022-10-21T23:13:01.071Z,12.07
2022-10-21T23:15:28.047Z,12.10
2022-10-21T23:17:55.171Z,12.02
2022-10-21T23:20:22.054Z,12.06
2022-10-21T23:22:49.022Z,12.02
2022-10-21T23:25:15.932Z,11.97
2022-10-21T23:27:44.393Z,11.95
2022-10-21T23:30:12.480Z,11.93
2022-10-21T23:32:39.690Z,11.82
2022-10-21T23:35:07.623Z,11.86
2022-10-21T23:37:34.622Z,11.81
2022-10-21T23:40:02.596Z,11.85
2022-10-21T23:42:29.450Z,11.95
2022-10-21T23:44:57.841Z,11.95
2022-10-21T23:47:24.850Z,11.94
2022-10-21T23:49:51.888Z,11.92
2022-10-21T23:52:18.707Z,11.86
2022-10-21T23:54:46.125Z,11.92
2022-10-21T23:57:13.249Z,11.86
2022-10-21T23:59:41.230Z,11.83
